Time;durP1;ratioP1;P1;durP2;ratioP2;P2;SDS_P1;SDS_P2;PMS_P1;PMS_P2;Temp;Humidity;BMP_temperature;BMP_pressure;BME280_temperature;BME280_humidity;BME280_pressure;Samples;Min_cycle;Max_cycle;Signal;HPM_P1;HPM_P2
2022/07/30 00:00:54;;;;;;;0.20;0.20;;;23.60;59.40;;;;;;4940220;28;20565;-42
2022/07/30 00:03:20;;;;;;;0.20;0.20;;;23.60;59.40;;;;;;4939117;28;20105;-43
2022/07/30 00:05:45;;;;;;;0.30;0.30;;;23.60;59.50;;;;;;4937472;28;20039;-42
2022/07/30 00:08:11;;;;;;;0.22;0.22;;;23.60;59.40;;;;;;4941309;28;20048;-43
2022/07/30 00:10:36;;;;;;;0.38;0.30;;;23.60;59.50;;;;;;4939709;28;20182;-42
2022/07/30 00:13:02;;;;;;;0.22;0.22;;;23.60;59.40;;;;;;4941115;28;20051;-43
2022/07/30 00:15:28;;;;;;;0.20;0.15;;;23.60;59.40;;;;;;4938814;28;20043;-43
2022/07/30 00:17:53;;;;;;;0.20;0.20;;;23.70;59.50;;;;;;4939907;28;20059;-43
2022/07/30 00:20:19;;;;;;;0.10;0.10;;;23.60;59.50;;;;;;4938510;28;20079;-43
2022/07/30 00:22:44;;;;;;;0.20;0.20;;;23.60;59.40;;;;;;4939006;28;20586;-43
2022/07/30 00:25:10;;;;;;;0.20;0.15;;;23.60;59.40;;;;;;4939333;28;20053;-43
2022/07/30 00:27:36;;;;;;;0.20;0.20;;;23.60;59.40;;;;;;4940770;28;20051;-42
2022/07/30 00:30:02;;;;;;;0.17;0.17;;;23.70;59.50;;;;;;4941815;28;20057;-43
2022/07/30 00:32:28;;;;;;;0.30;0.30;;;23.60;59.70;;;;;;4939155;28;20138;-43
2022/07/30 00:34:53;;;;;;;0.20;0.20;;;23.60;59.50;;;;;;4939282;28;20131;-43
2022/07/30 00:37:19;;;;;;;0.50;0.10;;;23.70;59.50;;;;;;4938058;28;20044;-44
2022/07/30 00:39:44;;;;;;;0.30;0.30;;;23.60;59.40;;;;;;4940205;28;20580;-43
2022/07/30 00:42:10;;;;;;;0.17;0.17;;;23.60;59.50;;;;;;4941230;28;20039;-43
2022/07/30 00:44:35;;;;;;;0.20;0.20;;;23.60;59.50;;;;;;4939834;28;20325;-42
2022/07/30 00:47:01;;;;;;;0.30;0.30;;;23.70;59.50;;;;;;4938549;28;20036;-44
2022/07/30 00:49:27;;;;;;;0.20;0.20;;;23.70;59.50;;;;;;4943322;28;20056;-43
2022/07/30 00:51:52;;;;;;;0.30;0.30;;;23.60;59.50;;;;;;4943109;28;20050;-45
2022/07/30 00:54:18;;;;;;;0.30;0.30;;;23.60;59.50;;;;;;4942900;28;20483;-43
2022/07/30 00:56:43;;;;;;;0.20;0.20;;;23.60;59.50;;;;;;4942341;28;20046;-43
2022/07/30 00:59:09;;;;;;;0.20;0.20;;;23.60;59.50;;;;;;4940067;28;20098;-43
2022/07/30 01:01:35;;;;;;;0.20;0.20;;;23.60;59.50;;;;;;4936773;28;20067;-43
2022/07/30 01:04:00;;;;;;;0.30;0.28;;;23.60;59.60;;;;;;4941594;28;20047;-43
2022/07/30 01:06:26;;;;;;;0.32;0.32;;;23.60;59.50;;;;;;4940199;28;20047;-43
2022/07/30 01:08:53;;;;;;;0.40;0.40;;;23.60;59.50;;;;;;4937575;28;20035;-42
2022/07/30 01:11:18;;;;;;;0.30;0.30;;;23.60;59.50;;;;;;4941516;28;20043;-43
2022/07/30 01:13:44;;;;;;;0.30;0.20;;;23.60;59.50;;;;;;4941628;28;20043;-43
2022/07/30 01:16:09;;;;;;;0.30;0.30;;;23.60;59.60;;;;;;4940619;28;20048;-45
2022/07/30 01:21:22;;;;;;;0.20;0.20;;;23.60;59.60;;;;;;4929058;28;20102;-43
2022/07/30 01:23:48;;;;;;;0.20;0.20;;;23.70;59.50;;;;;;4937943;28;20534;-43
2022/07/30 01:26:15;;;;;;;0.30;0.30;;;23.70;59.50;;;;;;4936376;28;20539;-43
2022/07/30 01:28:49;;;;;;;0.20;0.10;;;23.70;59.50;;;;;;4939616;28;20465;-42
2022/07/30 01:31:14;;;;;;;;;;;23.60;59.40;;;;;;4941601;28;20047;-43
2022/07/30 01:33:42;;;;;;;0.10;0.10;;;23.60;59.50;;;;;;4936726;29;20313;-43
2022/07/30 01:36:09;;;;;;;0.10;0.10;;;23.60;59.40;;;;;;4928927;28;20395;-43
2022/07/30 01:38:35;;;;;;;0.20;0.20;;;23.70;59.50;;;;;;4937444;28;20077;-43
2022/07/30 01:41:00;;;;;;;0.30;0.30;;;23.70;59.40;;;;;;4935368;28;20517;-43
2022/07/30 01:43:26;;;;;;;0.30;0.30;;;23.60;59.40;;;;;;4933855;28;20490;-43
2022/07/30 01:45:52;;;;;;;0.20;0.20;;;23.70;59.40;;;;;;4934594;29;20048;-43
2022/07/30 01:48:19;;;;;;;0.40;0.30;;;23.70;59.40;;;;;;4939915;28;20464;-43
2022/07/30 01:50:45;;;;;;;0.20;0.20;;;23.60;59.30;;;;;;4938765;28;20047;-42
2022/07/30 01:53:17;;;;;;;0.20;0.20;;;23.70;59.40;;;;;;4943300;28;20083;-43
2022/07/30 01:55:43;;;;;;;0.20;0.17;;;23.60;59.40;;;;;;4938599;28;20046;-43
2022/07/30 01:58:09;;;;;;;0.20;0.20;;;23.60;59.40;;;;;;4943135;28;20048;-43
2022/07/30 02:00:36;;;;;;;0.30;0.30;;;23.60;59.50;;;;;;4928836;28;20105;-44
2022/07/30 02:03:03;;;;;;;0.47;0.28;;;23.60;59.50;;;;;;4936579;28;20051;-43
2022/07/30 02:05:29;;;;;;;0.20;0.20;;;23.60;59.50;;;;;;4937671;28;20028;-43
2022/07/30 02:08:02;;;;;;;0.10;0.10;;;23.60;59.50;;;;;;4943786;28;20510;-43
2022/07/30 02:10:40;;;;;;;0.20;0.20;;;23.60;59.50;;;;;;4933247;28;20044;-16
2022/07/30 02:13:06;;;;;;;0.20;0.20;;;23.60;59.40;;;;;;4939132;28;20051;-17
2022/07/30 02:15:45;;;;;;;0.20;0.20;;;23.60;59.40;;;;;;4937562;29;20464;-18
2022/07/30 02:18:17;;;;;;;0.20;0.20;;;23.60;59.40;;;;;;4936339;28;20051;-18
2022/07/30 02:20:44;;;;;;;0.20;0.20;;;23.60;59.40;;;;;;4937724;28;20125;-18
2022/07/30 02:23:10;;;;;;;0.20;0.20;;;23.60;59.40;;;;;;4951957;28;20059;-17
2022/07/30 02:25:37;;;;;;;0.20;0.20;;;23.60;59.30;;;;;;4939888;29;20055;-19
2022/07/30 02:28:08;;;;;;;0.40;0.30;;;23.60;59.40;;;;;;4935869;28;20055;-18
2022/07/30 02:30:35;;;;;;;0.30;0.30;;;23.60;59.40;;;;;;4932249;28;20078;-19
2022/07/30 02:33:04;;;;;;;0.68;0.17;;;23.60;59.40;;;;;;4936341;28;20067;-18
2022/07/30 02:35:30;;;;;;;0.25;0.25;;;23.60;59.40;;;;;;4943241;28;20416;-17
2022/07/30 02:37:55;;;;;;;0.20;0.20;;;23.60;59.40;;;;;;4936882;28;20052;-18
2022/07/30 02:40:21;;;;;;;0.20;0.20;;;23.60;59.40;;;;;;4942873;28;20107;-18
2022/07/30 02:42:49;;;;;;;0.30;0.30;;;23.60;59.40;;;;;;4939329;28;20039;-18
2022/07/30 02:45:18;;;;;;;0.30;0.30;;;23.50;59.40;;;;;;4926026;28;20055;-18
2022/07/30 02:47:51;;;;;;;0.10;0.10;;;23.60;60.10;;;;;;4937668;28;20051;-18
2022/07/30 02:50:17;;;;;;;0.30;0.25;;;23.60;59.40;;;;;;4990036;28;20051;-17
2022/07/30 02:52:42;;;;;;;0.20;0.20;;;23.60;59.40;;;;;;4937418;28;20051;-19
2022/07/30 02:55:08;;;;;;;0.20;0.20;;;23.60;59.30;;;;;;4938122;28;20087;-17
2022/07/30 02:57:34;;;;;;;0.17;0.17;;;23.60;59.40;;;;;;4953036;28;20065;-17
2022/07/30 03:00:00;;;;;;;0.30;0.30;;;23.60;59.30;;;;;;4950395;28;20490;-18
2022/07/30 03:02:26;;;;;;;0.20;0.20;;;23.60;59.40;;;;;;4939417;28;20055;-18
2022/07/30 03:04:51;;;;;;;0.15;0.15;;;23.60;59.90;;;;;;4933449;28;20052;-17
2022/07/30 03:07:17;;;;;;;0.22;0.22;;;23.60;59.30;;;;;;4940046;28;20043;-18
2022/07/30 03:09:43;;;;;;;0.20;0.20;;;23.60;59.30;;;;;;4935154;28;20082;-18
2022/07/30 03:12:10;;;;;;;0.20;0.20;;;23.60;59.20;;;;;;4940105;29;20140;-18
2022/07/30 03:14:36;;;;;;;0.20;0.20;;;23.60;59.30;;;;;;4942533;28;20047;-18
2022/07/30 03:17:02;;;;;;;0.30;0.30;;;23.60;59.30;;;;;;4938210;28;20521;-21
2022/07/30 03:19:29;;;;;;;0.20;0.20;;;23.60;59.30;;;;;;4942614;28;20055;-18
2022/07/30 03:21:55;;;;;;;0.15;0.15;;;23.50;59.30;;;;;;4935589;28;20040;-18
2022/07/30 03:24:21;;;;;;;0.10;0.10;;;23.60;59.40;;;;;;4938633;28;20050;-18
2022/07/30 03:26:46;;;;;;;0.20;0.20;;;23.60;59.30;;;;;;4925037;28;20509;-18
2022/07/30 03:29:12;;;;;;;0.30;0.30;;;23.60;59.30;;;;;;4923999;28;20093;-18
2022/07/30 03:31:38;;;;;;;0.28;0.20;;;23.60;59.30;;;;;;4939773;28;20051;-18
2022/07/30 03:34:05;;;;;;;0.25;0.25;;;23.50;59.40;;;;;;4936749;28;20055;-18
2022/07/30 03:36:31;;;;;;;0.17;0.17;;;23.50;59.40;;;;;;4936805;28;20042;-18
2022/07/30 03:38:56;;;;;;;0.30;0.30;;;23.60;59.40;;;;;;4937017;28;20040;-18
2022/07/30 03:41:22;;;;;;;0.35;0.20;;;23.60;59.40;;;;;;4936804;28;20127;-17
2022/07/30 03:43:47;;;;;;;0.20;0.20;;;23.50;59.30;;;;;;4923530;28;20102;-18
2022/07/30 03:46:13;;;;;;;0.15;0.15;;;23.60;59.30;;;;;;4928751;28;20083;-18
2022/07/30 03:48:38;;;;;;;0.20;0.20;;;23.50;59.30;;;;;;4932460;28;20143;-18
2022/07/30 03:51:06;;;;;;;0.20;0.20;;;23.60;59.30;;;;;;4929196;28;20078;-20
2022/07/30 03:53:31;;;;;;;0.20;0.20;;;23.60;59.30;;;;;;4940168;28;20567;-18
2022/07/30 03:55:57;;;;;;;0.10;0.10;;;23.60;59.30;;;;;;4937996;28;20071;-18
2022/07/30 03:58:22;;;;;;;0.20;0.20;;;23.60;59.30;;;;;;4943133;29;20047;-18
2022/07/30 04:00:49;;;;;;;0.20;0.10;;;23.50;59.30;;;;;;4942777;28;20052;-18
2022/07/30 04:03:27;;;;;;;0.20;0.20;;;23.60;59.40;;;;;;4938195;28;20044;-18
2022/07/30 04:05:53;;;;;;;0.13;0.13;;;23.60;59.30;;;;;;4938932;28;20035;-18
2022/07/30 04:08:18;;;;;;;0.10;0.10;;;23.50;59.30;;;;;;4939735;28;20039;-19
2022/07/30 04:10:44;;;;;;;0.30;0.30;;;23.50;59.40;;;;;;4940976;28;20631;-19
2022/07/30 04:13:10;;;;;;;0.30;0.30;;;23.50;59.30;;;;;;4940494;28;20082;-18
2022/07/30 04:15:40;;;;;;;0.25;0.25;;;23.50;59.40;;;;;;4941970;28;20146;-18
2022/07/30 04:18:06;;;;;;;0.40;0.40;;;23.50;59.30;;;;;;4940855;28;20133;-17
2022/07/30 04:20:35;;;;;;;4.32;4.05;;;23.50;59.90;;;;;;4929956;28;20181;-19
2022/07/30 04:23:00;;;;;;;9.52;8.52;;;23.30;63.10;;;;;;4931230;28;20078;-18
2022/07/30 04:25:26;;;;;;;12.95;11.60;;;22.90;65.90;;;;;;4941574;28;20485;-17
2022/07/30 04:27:52;;;;;;;13.65;12.27;;;22.70;67.50;;;;;;4938305;28;20110;-18
2022/07/30 04:30:17;;;;;;;14.88;12.90;;;22.20;69.70;;;;;;4944705;28;20051;-18
2022/07/30 04:32:43;;;;;;;14.18;12.55;;;22.40;69.40;;;;;;4936796;28;20499;-20
2022/07/30 04:35:09;;;;;;;16.33;14.73;;;22.40;69.30;;;;;;4940072;28;20055;-18
2022/07/30 04:37:34;;;;;;;15.15;13.55;;;22.40;69.40;;;;;;4939171;28;20527;-18
2022/07/30 04:40:00;;;;;;;20.60;16.10;;;22.30;69.60;;;;;;4942006;28;20048;-18
2022/07/30 04:42:26;;;;;;;15.15;13.50;;;22.30;69.60;;;;;;4940283;28;20055;-18
2022/07/30 04:44:52;;;;;;;16.58;14.88;;;22.40;69.50;;;;;;4941614;28;20422;-18
2022/07/30 04:47:18;;;;;;;16.83;14.77;;;22.30;69.70;;;;;;4938703;28;20051;-19
2022/07/30 04:49:44;;;;;;;15.82;13.23;;;22.30;70.10;;;;;;4939786;28;20063;-18
2022/07/30 04:52:10;;;;;;;15.70;14.02;;;22.20;70.10;;;;;;4939114;28;20159;-18
2022/07/30 04:54:49;;;;;;;16.75;14.73;;;22.10;71.40;;;;;;4928076;29;20521;-18
2022/07/30 04:57:14;;;;;;;16.02;14.32;;;22.00;71.00;;;;;;4956538;28;20630;-18
2022/07/30 04:59:40;;;;;;;17.05;14.90;;;21.90;71.60;;;;;;4920570;28;20127;-19
2022/07/30 05:02:06;;;;;;;14.85;13.25;;;21.90;71.40;;;;;;4939387;28;20417;-18
2022/07/30 05:04:32;;;;;;;13.82;12.43;;;21.80;71.90;;;;;;5022255;28;20054;-18
2022/07/30 05:06:58;;;;;;;16.08;14.40;;;21.50;72.80;;;;;;4938896;28;20815;-17
2022/07/30 05:09:24;;;;;;;16.98;15.13;;;21.60;72.50;;;;;;4943700;28;20082;-18
2022/07/30 05:11:51;;;;;;;16.13;14.52;;;21.80;72.30;;;;;;5003068;28;20470;-18
2022/07/30 05:14:16;;;;;;;16.15;13.95;;;21.80;72.00;;;;;;4946532;28;20109;-18
2022/07/30 05:16:42;;;;;;;13.45;12.00;;;21.70;72.10;;;;;;4940489;28;20494;-18
2022/07/30 05:19:08;;;;;;;13.25;11.95;;;21.70;72.20;;;;;;4941645;28;20051;-18
2022/07/30 05:21:34;;;;;;;15.20;13.55;;;21.70;72.30;;;;;;4940639;28;20071;-18
2022/07/30 05:23:59;;;;;;;13.15;11.75;;;21.70;72.50;;;;;;4936757;28;20054;-18
2022/07/30 05:26:25;;;;;;;12.48;11.27;;;21.50;72.80;;;;;;4940007;28;20079;-18
2022/07/30 05:28:50;;;;;;;12.23;10.95;;;21.60;72.80;;;;;;4940323;28;20049;-18
2022/07/30 05:31:16;;;;;;;11.32;10.25;;;21.60;72.60;;;;;;4939026;28;20039;-19
2022/07/30 05:33:42;;;;;;;11.77;10.55;;;21.60;72.70;;;;;;4940132;28;20052;-18
2022/07/30 05:36:07;;;;;;;11.82;10.63;;;21.50;73.00;;;;;;4939156;28;20402;-18
2022/07/30 05:38:34;;;;;;;11.55;10.43;;;21.10;74.60;;;;;;4941179;28;20105;-18
2022/07/30 05:40:59;;;;;;;10.45;9.45;;;21.10;75.00;;;;;;4937195;28;20054;-18
2022/07/30 05:43:25;;;;;;;11.93;10.82;;;21.20;74.20;;;;;;4939750;28;20047;-18
2022/07/30 05:45:51;;;;;;;11.13;9.90;;;21.10;75.10;;;;;;4941753;28;20051;-18
2022/07/30 05:48:16;;;;;;;9.77;9.07;;;21.10;75.30;;;;;;4938319;28;20051;-18
2022/07/30 05:50:42;;;;;;;10.38;9.38;;;20.90;76.00;;;;;;4937337;28;20127;-18
2022/07/30 05:53:08;;;;;;;10.13;9.10;;;20.80;76.70;;;;;;4934695;28;20069;-18
2022/07/30 05:55:33;;;;;;;11.85;10.70;;;20.80;76.50;;;;;;4943430;28;20075;-18
2022/07/30 05:57:59;;;;;;;11.10;9.68;;;21.00;75.80;;;;;;4940321;28;20537;-18
2022/07/30 06:00:24;;;;;;;10.82;9.73;;;20.80;76.30;;;;;;4939398;28;20327;-18
2022/07/30 06:02:50;;;;;;;9.60;8.77;;;20.80;76.30;;;;;;4934983;28;20106;-18
2022/07/30 06:05:15;;;;;;;9.57;8.68;;;20.70;77.20;;;;;;4933759;28;21503;-17
2022/07/30 06:07:41;;;;;;;9.00;7.55;;;20.90;76.70;;;;;;4593734;28;10000416;-18
2022/07/30 06:10:07;;;;;;;8.32;7.53;;;21.10;75.40;;;;;;4934508;28;20032;-18
2022/07/30 06:12:33;;;;;;;8.85;8.18;;;21.30;74.80;;;;;;4937318;28;20051;-19
2022/07/30 06:14:58;;;;;;;9.13;7.10;;;21.40;74.40;;;;;;4934814;28;20062;-18
2022/07/30 06:17:24;;;;;;;6.68;6.18;;;21.40;73.90;;;;;;4933366;28;20122;-18
2022/07/30 06:19:49;;;;;;;5.97;5.60;;;21.50;73.40;;;;;;4937592;28;20433;-17
2022/07/30 06:22:16;;;;;;;7.85;6.82;;;21.50;73.20;;;;;;4937594;28;20067;-18
2022/07/30 06:24:41;;;;;;;6.43;5.82;;;21.60;72.70;;;;;;4934813;28;20128;-18
2022/07/30 06:27:07;;;;;;;6.40;5.90;;;21.70;72.50;;;;;;4936093;28;20118;-18
2022/07/30 06:29:32;;;;;;;5.60;5.10;;;21.70;72.20;;;;;;4937956;28;20047;-19
2022/07/30 06:31:58;;;;;;;4.68;4.38;;;21.70;72.10;;;;;;4932756;28;20421;-18
2022/07/30 06:34:24;;;;;;;4.55;4.25;;;21.70;71.90;;;;;;4935221;28;20437;-18
2022/07/30 06:36:49;;;;;;;4.80;4.10;;;21.70;71.60;;;;;;4936655;28;20051;-18
2022/07/30 06:39:15;;;;;;;4.50;4.20;;;21.80;71.60;;;;;;4933779;28;20055;-18
2022/07/30 06:41:41;;;;;;;4.75;4.35;;;21.80;71.70;;;;;;4940091;28;20038;-18
2022/07/30 06:44:06;;;;;;;3.90;3.55;;;21.80;71.40;;;;;;4935213;28;20040;-18
2022/07/30 06:46:32;;;;;;;3.15;2.95;;;21.80;71.40;;;;;;4938272;28;20587;-18
2022/07/30 06:48:58;;;;;;;3.20;3.00;;;21.80;71.10;;;;;;4939025;28;20052;-18
2022/07/30 06:51:23;;;;;;;3.45;3.17;;;21.80;70.80;;;;;;4939495;28;20051;-18
2022/07/30 06:53:49;;;;;;;3.38;3.13;;;21.90;71.00;;;;;;4939274;28;20044;-18
2022/07/30 06:56:14;;;;;;;3.20;2.70;;;21.90;70.80;;;;;;4935163;28;20051;-17
2022/07/30 06:58:40;;;;;;;2.53;2.33;;;21.90;70.70;;;;;;4938083;28;20039;-18
2022/07/30 07:01:05;;;;;;;2.50;2.30;;;21.90;70.50;;;;;;4939052;28;20040;-18
2022/07/30 07:03:31;;;;;;;2.25;2.05;;;21.90;70.40;;;;;;4936961;28;20031;-19
2022/07/30 07:05:57;;;;;;;4.18;1.88;;;21.90;70.30;;;;;;4936810;28;20109;-18
2022/07/30 07:08:22;;;;;;;1.80;1.70;;;21.90;70.10;;;;;;4936546;28;20043;-18
2022/07/30 07:10:48;;;;;;;2.58;1.90;;;21.90;70.20;;;;;;4931955;28;20126;-18
2022/07/30 07:13:14;;;;;;;1.70;1.60;;;22.00;70.10;;;;;;4592819;28;10000003;-17
2022/07/30 07:15:39;;;;;;;5.13;1.83;;;22.00;69.90;;;;;;4938097;28;20043;-18
2022/07/30 07:18:05;;;;;;;2.00;1.90;;;22.10;69.80;;;;;;4952114;28;20134;-18
2022/07/30 07:20:31;;;;;;;1.55;1.40;;;22.00;69.50;;;;;;4941966;28;20039;-18
2022/07/30 07:22:57;;;;;;;2.63;1.42;;;22.10;69.30;;;;;;4937748;28;20136;-19
2022/07/30 07:25:23;;;;;;;1.67;1.55;;;22.20;68.80;;;;;;4948588;28;20171;-19
2022/07/30 07:27:48;;;;;;;1.77;1.27;;;22.20;68.90;;;;;;4933425;28;20086;-19
2022/07/30 07:30:14;;;;;;;1.58;1.48;;;22.20;68.80;;;;;;4928215;28;20532;-18
2022/07/30 07:32:40;;;;;;;1.13;1.10;;;22.20;68.50;;;;;;4927565;28;20055;-19
2022/07/30 07:35:06;;;;;;;1.60;1.42;;;22.20;68.40;;;;;;4940153;28;20075;-18
2022/07/30 07:37:32;;;;;;;1.20;1.10;;;22.30;68.40;;;;;;4937384;28;20082;-18
2022/07/30 07:39:57;;;;;;;1.30;1.20;;;22.30;68.20;;;;;;4933001;28;20130;-18
2022/07/30 07:42:23;;;;;;;1.38;0.88;;;22.30;68.20;;;;;;4932487;28;20058;-18
2022/07/30 07:44:48;;;;;;;1.10;1.00;;;22.30;67.80;;;;;;4936832;28;20533;-18
2022/07/30 07:47:14;;;;;;;1.30;0.98;;;22.30;68.00;;;;;;4935696;28;20047;-18
2022/07/30 07:49:40;;;;;;;0.98;0.93;;;22.40;67.70;;;;;;4932984;28;20506;-18
2022/07/30 07:52:05;;;;;;;0.73;0.73;;;22.40;68.00;;;;;;4940882;28;20104;-18
2022/07/30 07:54:31;;;;;;;1.02;0.68;;;22.40;67.80;;;;;;4946300;28;20047;-18
2022/07/30 07:56:56;;;;;;;0.98;0.98;;;22.40;68.00;;;;;;4934869;28;20150;-18
2022/07/30 07:59:22;;;;;;;0.90;0.90;;;22.40;67.60;;;;;;4932007;28;20067;-18
2022/07/30 08:01:48;;;;;;;0.75;0.75;;;22.40;67.80;;;;;;4935303;28;20059;-18
2022/07/30 08:04:14;;;;;;;1.15;1.08;;;22.40;67.80;;;;;;4936365;28;20057;-20
2022/07/30 08:06:39;;;;;;;1.75;0.60;;;22.40;67.70;;;;;;4926305;28;20312;-18
2022/07/30 08:09:05;;;;;;;0.70;0.70;;;22.50;67.90;;;;;;4934950;28;20126;-18
2022/07/30 08:11:30;;;;;;;0.60;0.60;;;22.50;67.60;;;;;;4932387;28;20039;-49
2022/07/30 08:13:56;;;;;;;0.60;0.60;;;22.50;67.40;;;;;;4944607;28;20568;-47
2022/07/30 08:16:21;;;;;;;0.82;0.55;;;22.50;67.40;;;;;;4932791;28;20464;-47
2022/07/30 08:18:47;;;;;;;0.60;0.40;;;22.50;67.00;;;;;;4945646;28;20057;-48
2022/07/30 08:21:14;;;;;;;0.45;0.45;;;22.50;67.10;;;;;;4941788;28;20472;-47
2022/07/30 08:23:40;;;;;;;0.98;0.77;;;22.50;67.10;;;;;;4939509;28;20042;-47
2022/07/30 08:26:05;;;;;;;0.45;0.40;;;22.60;66.90;;;;;;4947256;28;20043;-50
2022/07/30 08:28:31;;;;;;;0.40;0.40;;;22.60;67.10;;;;;;4947037;28;20047;-49
2022/07/30 08:30:56;;;;;;;0.43;0.43;;;22.60;67.60;;;;;;4946261;28;20413;-48
2022/07/30 08:33:22;;;;;;;0.57;0.50;;;22.60;66.90;;;;;;4946275;28;20138;-41
2022/07/30 08:35:48;;;;;;;0.82;0.40;;;22.60;66.70;;;;;;4950534;28;20195;-42
2022/07/30 08:38:13;;;;;;;0.20;0.20;;;22.70;66.70;;;;;;4934137;28;20425;-45
2022/07/30 08:40:39;;;;;;;0.40;0.35;;;22.60;66.60;;;;;;4938063;28;20057;-44
2022/07/30 08:43:06;;;;;;;0.30;0.30;;;22.60;66.40;;;;;;4942006;28;20047;-40
2022/07/30 08:45:32;;;;;;;0.47;0.30;;;22.70;66.40;;;;;;4930105;28;22210;-38
2022/07/30 08:47:59;;;;;;;0.40;0.38;;;22.70;66.20;;;;;;4937571;28;20487;-39
2022/07/30 08:50:25;;;;;;;1.17;0.52;;;22.70;66.20;;;;;;4935088;28;20194;-41
2022/07/30 08:52:54;;;;;;;0.75;0.40;;;22.70;67.00;;;;;;4934305;28;20571;-39
2022/07/30 08:55:20;;;;;;;0.25;0.25;;;22.70;66.50;;;;;;4938723;28;20043;-39
2022/07/30 08:57:46;;;;;;;0.50;0.40;;;22.70;66.30;;;;;;4932936;28;20040;-39
2022/07/30 09:00:13;;;;;;;0.47;0.40;;;22.70;66.10;;;;;;4932147;28;20066;-39
2022/07/30 09:02:38;;;;;;;2.60;0.45;;;22.70;66.20;;;;;;4932296;28;20043;-39
2022/07/30 09:05:04;;;;;;;0.40;0.40;;;22.70;66.20;;;;;;4919799;28;20070;-37
2022/07/30 09:07:32;;;;;;;0.32;0.30;;;22.70;66.10;;;;;;4936538;28;20588;-39
2022/07/30 09:09:57;;;;;;;0.63;0.50;;;22.70;65.90;;;;;;4934483;28;20055;-42
2022/07/30 09:12:34;;;;;;;0.40;0.40;;;22.80;65.90;;;;;;4955206;28;20062;-43
2022/07/30 09:15:17;;;;;;;0.30;0.30;;;22.80;65.80;;;;;;4940699;28;20059;-39
2022/07/30 09:17:46;;;;;;;0.63;0.30;;;22.80;65.50;;;;;;4595329;28;10000015;-38
2022/07/30 09:20:12;;;;;;;0.30;0.30;;;22.80;65.40;;;;;;4936958;28;20044;-39
2022/07/30 09:22:42;;;;;;;0.38;0.30;;;22.80;65.50;;;;;;4936894;28;20058;-39
2022/07/30 09:25:07;;;;;;;0.40;0.32;;;22.80;65.30;;;;;;4936504;28;20035;-42
2022/07/30 09:27:46;;;;;;;1.00;0.40;;;22.80;65.10;;;;;;4940308;28;20036;-39
2022/07/30 09:30:12;;;;;;;0.32;0.22;;;22.90;65.10;;;;;;4938996;28;20038;-38
2022/07/30 09:32:48;;;;;;;0.28;0.25;;;22.90;65.30;;;;;;4939921;28;20044;-40
2022/07/30 09:35:14;;;;;;;0.30;0.30;;;22.90;65.20;;;;;;4937574;28;20039;-37
2022/07/30 09:37:39;;;;;;;1.45;0.30;;;22.80;65.00;;;;;;4943395;28;20048;-39
2022/07/30 09:40:15;;;;;;;0.60;0.38;;;22.80;65.10;;;;;;4938105;28;20080;-37
2022/07/30 09:42:41;;;;;;;0.40;0.40;;;22.90;65.10;;;;;;4939868;28;20043;-41
2022/07/30 09:45:09;;;;;;;0.40;0.35;;;22.80;65.00;;;;;;4924216;28;20039;-40
2022/07/30 09:47:36;;;;;;;0.40;0.40;;;22.90;65.00;;;;;;4939416;28;20513;-44
2022/07/30 09:50:09;;;;;;;1.73;0.40;;;22.90;65.00;;;;;;4937715;28;20467;-48
2022/07/30 09:52:35;;;;;;;0.30;0.30;;;22.90;65.00;;;;;;4943726;28;20051;-39
2022/07/30 09:55:01;;;;;;;0.40;0.40;;;22.90;65.00;;;;;;4937646;28;20047;-41
2022/07/30 09:57:26;;;;;;;0.32;0.32;;;22.90;64.90;;;;;;4939272;28;20055;-39
2022/07/30 09:59:52;;;;;;;1.75;0.50;;;22.90;64.80;;;;;;4938094;28;20043;-39
2022/07/30 10:02:18;;;;;;;0.30;0.30;;;22.90;64.70;;;;;;4941604;28;20039;-42
2022/07/30 10:04:43;;;;;;;0.55;0.40;;;22.90;64.60;;;;;;4933943;28;20044;-43
2022/07/30 10:07:19;;;;;;;0.40;0.40;;;22.90;64.60;;;;;;4938258;28;20031;-39
2022/07/30 10:09:46;;;;;;;0.40;0.40;;;22.90;64.40;;;;;;4937949;28;20051;-39
2022/07/30 10:12:12;;;;;;;0.52;0.40;;;23.00;64.50;;;;;;4936032;28;20521;-37
2022/07/30 10:14:38;;;;;;;0.50;0.50;;;22.90;64.50;;;;;;4932652;28;20044;-39
2022/07/30 10:17:04;;;;;;;0.90;0.40;;;23.00;64.40;;;;;;4935356;28;20058;-39
2022/07/30 10:19:31;;;;;;;0.52;0.52;;;23.00;64.40;;;;;;4937726;28;20105;-40
2022/07/30 10:21:56;;;;;;;0.47;0.40;;;23.00;64.10;;;;;;4941289;28;20050;-39
2022/07/30 10:24:23;;;;;;;0.57;0.30;;;23.00;64.20;;;;;;4938399;28;20047;-39
2022/07/30 10:26:49;;;;;;;0.40;0.40;;;23.00;64.20;;;;;;4936768;28;20047;-39
2022/07/30 10:29:18;;;;;;;0.30;0.30;;;23.00;64.40;;;;;;4941118;28;20086;-38
2022/07/30 10:31:45;;;;;;;0.52;0.52;;;23.00;64.30;;;;;;4937969;28;20119;-39
2022/07/30 10:34:14;;;;;;;0.85;0.60;;;23.00;64.20;;;;;;4943336;28;20069;-39
2022/07/30 10:36:40;;;;;;;0.60;0.38;;;23.00;64.40;;;;;;4942348;28;20062;-38
2022/07/30 10:39:06;;;;;;;0.50;0.50;;;23.00;64.40;;;;;;4928656;28;20089;-39
2022/07/30 10:41:40;;;;;;;0.40;0.35;;;23.00;64.40;;;;;;4936669;29;20113;-39
2022/07/30 10:44:09;;;;;;;0.35;0.35;;;23.00;64.30;;;;;;4922856;29;20042;-39
2022/07/30 10:46:37;;;;;;;0.43;0.40;;;23.00;64.30;;;;;;4935019;28;20067;-38
2022/07/30 10:49:16;;;;;;;0.30;0.30;;;22.90;64.20;;;;;;4936879;28;20173;-39
2022/07/30 10:51:45;;;;;;;0.50;0.40;;;23.00;64.20;;;;;;4940713;28;20546;-39
2022/07/30 10:54:32;;;;;;;0.30;0.30;;;23.00;64.10;;;;;;4934446;28;20071;-43
2022/07/30 10:57:11;;;;;;;0.50;0.50;;;23.00;64.20;;;;;;4930937;28;20039;-39
2022/07/30 10:59:57;;;;;;;0.25;0.25;;;23.00;64.00;;;;;;4950443;28;20554;-38
2022/07/30 11:02:23;;;;;;;0.30;0.30;;;23.00;64.10;;;;;;4936600;28;20048;-39
2022/07/30 11:04:49;;;;;;;0.38;0.38;;;23.00;64.10;;;;;;4934021;28;20126;-38
2022/07/30 11:07:21;;;;;;;1.13;0.50;;;23.00;64.10;;;;;;4935666;28;20043;-39
2022/07/30 11:09:47;;;;;;;0.20;0.20;;;23.00;64.00;;;;;;4935298;28;20056;-39
2022/07/30 11:12:13;;;;;;;0.30;0.30;;;23.00;64.00;;;;;;4932982;28;20052;-43
2022/07/30 11:14:44;;;;;;;0.32;0.32;;;23.00;63.90;;;;;;4934907;28;20053;-38
2022/07/30 11:17:10;;;;;;;0.35;0.35;;;23.00;63.90;;;;;;4932460;28;20051;-39
2022/07/30 11:19:54;;;;;;;0.40;0.40;;;23.00;63.80;;;;;;4937610;28;20105;-39
2022/07/30 11:22:24;;;;;;;0.50;0.50;;;23.00;63.80;;;;;;4930633;28;20583;-38
2022/07/30 11:24:49;;;;;;;0.63;0.43;;;23.00;63.80;;;;;;4940616;28;20055;-38
2022/07/30 11:27:40;;;;;;;0.30;0.30;;;23.00;63.70;;;;;;4930779;28;20051;-39
2022/07/30 11:30:28;;;;;;;0.25;0.25;;;23.10;63.80;;;;;;4933975;28;20042;-39
2022/07/30 11:33:03;;;;;;;0.50;0.30;;;23.00;63.70;;;;;;4929395;28;20493;-38
2022/07/30 11:35:29;;;;;;;0.50;0.30;;;23.00;63.60;;;;;;4933882;28;20047;-39
2022/07/30 11:37:56;;;;;;;1.38;0.32;;;23.10;63.60;;;;;;4933949;28;20126;-39
2022/07/30 11:40:22;;;;;;;0.40;0.40;;;23.10;63.60;;;;;;4935306;28;20047;-39
2022/07/30 11:42:48;;;;;;;0.40;0.40;;;23.10;63.40;;;;;;4936410;28;20113;-39
2022/07/30 11:45:17;;;;;;;0.32;0.32;;;23.10;63.60;;;;;;4933359;28;20048;-37
2022/07/30 11:47:50;;;;;;;0.30;0.30;;;23.10;63.50;;;;;;4937407;28;20051;-38
2022/07/30 11:50:19;;;;;;;0.33;0.30;;;23.10;63.50;;;;;;4936212;28;20050;-47
2022/07/30 11:52:49;;;;;;;0.28;0.28;;;23.10;63.50;;;;;;4940424;28;20429;-39
2022/07/30 11:55:33;;;;;;;0.32;0.32;;;23.10;63.40;;;;;;4933921;28;20642;-39
2022/07/30 11:58:00;;;;;;;1.23;0.60;;;23.10;64.10;;;;;;4594823;28;10000211;-42
2022/07/30 12:00:33;;;;;;;0.30;0.30;;;23.10;63.50;;;;;;4938643;28;20051;-40
2022/07/30 12:02:59;;;;;;;0.20;0.20;;;23.10;63.50;;;;;;4937492;28;20044;-39
2022/07/30 12:05:25;;;;;;;0.20;0.20;;;23.10;63.50;;;;;;4940141;28;20055;-26
2022/07/30 12:07:57;;;;;;;0.30;0.28;;;23.20;63.40;;;;;;4937496;28;20158;-32
2022/07/30 12:10:23;;;;;;;0.30;0.30;;;23.20;63.80;;;;;;4941821;28;20078;-30
2022/07/30 12:12:49;;;;;;;0.38;0.38;;;23.30;63.30;;;;;;4943126;28;20138;-29
2022/07/30 12:15:28;;;;;;;0.20;0.20;;;23.30;63.30;;;;;;4943563;28;20130;-30
2022/07/30 12:17:54;;;;;;;0.50;0.50;;;23.30;63.30;;;;;;4945185;28;20035;-30
2022/07/30 12:20:20;;;;;;;0.40;0.40;;;23.30;63.50;;;;;;4944883;28;20062;-32
2022/07/30 12:22:45;;;;;;;0.30;0.30;;;23.30;63.20;;;;;;4944768;28;20643;-31
2022/07/30 12:25:11;;;;;;;0.28;0.28;;;23.30;63.30;;;;;;4944654;28;20772;-39
2022/07/30 12:27:37;;;;;;;0.20;0.20;;;23.30;63.30;;;;;;4935502;28;20055;-32
2022/07/30 12:30:05;;;;;;;0.30;0.30;;;23.30;63.20;;;;;;4946227;28;20043;-28
2022/07/30 12:32:30;;;;;;;0.35;0.35;;;23.40;63.20;;;;;;4945087;28;20514;-33
2022/07/30 12:34:56;;;;;;;0.30;0.30;;;23.40;63.20;;;;;;4921549;28;20472;-34
2022/07/30 12:37:22;;;;;;;0.30;0.30;;;23.40;63.10;;;;;;4944750;28;20164;-35
2022/07/30 12:39:48;;;;;;;0.28;0.28;;;23.40;63.20;;;;;;4935024;28;20413;-28
2022/07/30 12:42:20;;;;;;;0.50;0.38;;;23.40;63.80;;;;;;4946394;28;20057;-21
2022/07/30 12:44:47;;;;;;;0.30;0.30;;;23.40;63.10;;;;;;4945799;28;20062;-26
2022/07/30 12:47:23;;;;;;;0.30;0.13;;;23.50;63.40;;;;;;4943950;28;20055;-31